deformed-offering

Nearby METAR Reports

 

KSJC - San Jose, California, USA
Distance from station: NE 9mi, 14km
Updated: Fri, 12-Apr-2024 7:53am PDT
Partly cloudy
Partly cloudy
 Wind from NNW
Wind: NNW 7 mph, 11 km/h
Temperature: 55°F, 13°C
Dew Point: 48°F, 9°C
Humidity: 77%
Barometer: 29.75 inHg, 1007.5 hPa
Clouds: Partly cloudy
Visibility: 10 miles, 16 km
Cloud details: Few Clouds 900 ft
Few Clouds 1600 ft
Partly cloudy 8500 ft
2024/04/12 14:53 KSJC 121453Z 34006KT 10SM FEW009 FEW016 SCT085 13/09 A2975 RMK AO2 SLP072 T01280089 51005
KPAO - Palo Alto, California, USA
Distance from station: NNW 14mi, 23km
Updated: Fri, 12-Apr-2024 7:47am PDT
Few Clouds
Few Clouds
 Wind from calm
Wind: Calm
Temperature: 52°F, 11°C
Dew Point: 46°F, 8°C
Humidity: 82%
Barometer: 29.75 inHg, 1007.5 hPa
Clouds: Few Clouds
Visibility: 10 miles, 16 km
Cloud details: Few Clouds 1500 ft
2024/04/12 14:47 KPAO 121447Z 00000KT 10SM FEW015 11/08 A2975
 
KSQL - San Carlos Airpo, California, USA
Distance from station: NW 21mi, 34km
Updated: Fri, 12-Apr-2024 7:47am PDT
Partly cloudy
Partly cloudy
 Wind from WSW
Wind: WSW 6 mph, 9 km/h
Temperature: 54°F, 12°C
Dew Point: 45°F, 7°C
Humidity: 72%
Barometer: 29.76 inHg, 1007.8 hPa
Clouds: Partly cloudy
Visibility: 10 miles, 16 km
Cloud details: Partly cloudy 1500 ft
2024/04/12 14:47 KSQL 121447Z 25005KT 10SM SCT015 12/07 A2976
KWVI - Watsonville, California, USA
Distance from station: SSE 27mi, 44km
Updated: Fri, 12-Apr-2024 8:31am PDT
Overcast
Overcast
 Wind from S
Wind: S 10 mph, 17 km/h
Temperature: 50°F, 10°C
Wind Chill: 46°F, 8°C
Dew Point: 48°F, 9°C
Humidity: 94%
Barometer: 29.77 inHg, 1008.1 hPa
Clouds: Overcast
Visibility: 10 miles, 16 km
Cloud details: Overcast 800 ft
2024/04/12 15:31 KWVI 121531Z AUTO 18009KT 10SM OVC008 10/09 A2977 RMK AO2 CIG 004V010 T01000094
 
KHWD - Hayward, California, USA
Distance from station: N 28mi, 44km
Updated: Fri, 12-Apr-2024 8:38am PDT
Partly cloudy
Partly cloudy
 Wind from W
Wind: W 13 mph, 20 km/h
Temperature: 55°F, 13°C
Dew Point: 48°F, 9°C
Humidity: 77%
Barometer: 29.75 inHg, 1007.5 hPa
Clouds: Partly cloudy
Visibility: 10 miles, 16 km
Cloud details: Partly cloudy 1700 ft
2024/04/12 15:38 KHWD 121538Z 26011KT 10SM SCT017 13/09 A2975 RMK AO2 T01330089
KSFO - San Francisco, California, USA
Distance from station: NW 30mi, 49km
Updated: Fri, 12-Apr-2024 8:33am PDT
Mostly cloudy
Mostly cloudy
 Wind from W
Wind: W 14 mph, 22 km/h, Gust: 20 mph, 31 km/h
Temperature: 54°F, 12°C
Dew Point: 46°F, 8°C
Humidity: 77%
Barometer: 29.75 inHg, 1007.5 hPa
Clouds: Mostly cloudy
Visibility: 10 miles, 16 km
Cloud details: Few Clouds 600 ft
Mostly cloudy 1800 ft
Mostly cloudy 20000 ft
2024/04/12 15:33 KSFO 121533Z 27012G17KT 10SM FEW006 BKN018 BKN200 12/08 A2975 RMK AO2 T01220078
 
KHAF - Half Moon Bay, California, USA
Distance from station: WNW 31mi, 50km
Updated: Fri, 12-Apr-2024 8:35am PDT
Mist, Overcast
Mist, Overcast
 Wind from NW
Wind: NW 9 mph, 15 km/h
Temperature: 54°F, 12°C
Dew Point: 50°F, 10°C
Humidity: 88%
Barometer: 29.77 inHg, 1008.1 hPa
Summary: Mist
Clouds: Overcast
Visibility: 5 miles, 8 km
Cloud details: Overcast 1600 ft
2024/04/12 15:35 KHAF 121535Z AUTO 32008KT 5SM BR OVC016 12/10 A2977 RMK AO2
KLVK - Livermore, California, USA
Distance from station: NNE 31mi, 51km
Updated: Fri, 12-Apr-2024 7:53am PDT
Clear
Clear
 Wind from W
Wind: W 7 mph, 11 km/h
Temperature: 52°F, 11°C
Dew Point: 48°F, 9°C
Humidity: 88%
Barometer: 29.73 inHg, 1006.8 hPa
Clouds: Clear
Visibility: 9 miles, 14 km
2024/04/12 14:53 KLVK 121453Z 27006KT 9SM CLR 11/09 A2973 RMK AO2 SLP062 T01110089 53004
 
KOAK - Oakland, California, USA
Distance from station: NNW 33mi, 53km
Updated: Fri, 12-Apr-2024 7:53am PDT
Mostly cloudy
Mostly cloudy
 Wind from W
Wind: W 13 mph, 20 km/h
Temperature: 54°F, 12°C
Dew Point: 46°F, 8°C
Humidity: 77%
Barometer: 29.76 inHg, 1007.8 hPa
Clouds: Mostly cloudy
Visibility: 10 miles, 16 km
Cloud details: Mostly cloudy 1500 ft
2024/04/12 14:53 KOAK 121453Z 26011KT 10SM BKN015 12/08 A2976 RMK AO2 SLP076 T01170083 53003
KCVH - Hollister Muni, California, USA
Distance from station: SE 42mi, 68km
Updated: Fri, 12-Apr-2024 8:35am PDT
Overcast
Overcast
 Wind from NE
Wind: NE 3 mph, 6 km/h
Temperature: 54°F, 12°C
Dew Point: 50°F, 10°C
Humidity: 88%
Barometer: 29.76 inHg, 1007.8 hPa
Clouds: Overcast
Visibility: 7 miles, 11 km
Cloud details: Overcast 900 ft
2024/04/12 15:35 KCVH 121535Z AUTO 05003KT 7SM OVC009 12/10 A2976 RMK A01
 
KSNS - Salinas, California, USA
Distance from station: SSE 48mi, 77km
Updated: Fri, 12-Apr-2024 7:53am PDT
Overcast
Overcast
 Wind from W
Wind: W 7 mph, 11 km/h
Temperature: 52°F, 11°C
Dew Point: 48°F, 9°C
Humidity: 88%
Barometer: 29.77 inHg, 1008.1 hPa
Clouds: Overcast
Visibility: 8 miles, 13 km
Cloud details: Overcast 1000 ft
2024/04/12 14:53 KSNS 121453Z 28006KT 8SM OVC010 11/09 A2977 RMK AO2 SLP091 T01110089 53008
KMRY - Monterey, California, USA
Distance from station: SSE 49mi, 78km
Updated: Fri, 12-Apr-2024 7:54am PDT
Overcast
Overcast
 Wind from W
Wind: W 9 mph, 15 km/h
Temperature: 52°F, 11°C
Dew Point: 46°F, 8°C
Humidity: 82%
Barometer: 29.78 inHg, 1008.5 hPa
Clouds: Overcast
Visibility: 10 miles, 16 km
Cloud details: Overcast 1100 ft
2024/04/12 14:54 KMRY 121454Z 26008KT 10SM OVC011 11/08 A2978 RMK AO2 SLP095 T01060083 53004 $
 
KCCR - Concord, California, USA
Distance from station: N 50mi, 81km
Updated: Fri, 12-Apr-2024 7:53am PDT
Clear
Clear
 Wind from S
Wind: S 14 mph, 22 km/h
Temperature: 54°F, 12°C
Dew Point: 46°F, 8°C
Humidity: 77%
Barometer: 29.71 inHg, 1006.1 hPa
Clouds: Clear
Visibility: 10 miles, 16 km
2024/04/12 14:53 KCCR 121453Z 19012KT 10SM CLR 12/08 A2971 RMK AO2 SLP046 T01170078 53003
deformed-offering